Time;durP1;ratioP1;P1;durP2;ratioP2;P2;SDS_P1;SDS_P2;PMS_P1;PMS_P2;Temp;Humidity;BMP_temperature;BMP_pressure;BME280_temperature;BME280_humidity;BME280_pressure;Samples;Min_cycle;Max_cycle;Signal;HPM_P1;HPM_P2
2023/10/25 00:00:49;;;;;;;5.18;2.83;;;;;;;;;;5023484;28;20424;-87
2023/10/25 00:03:16;;;;;;;6.32;2.78;;;;;;;;;;5024887;28;22102;-83
2023/10/25 00:05:41;;;;;;;4.45;2.72;;;;;;;;;;5026752;28;20017;-83
2023/10/25 00:08:07;;;;;;;8.10;3.03;;;;;;;;;;5028794;28;20021;-83
2023/10/25 00:10:32;;;;;;;6.80;2.85;;;;;;;;;;5027534;28;20076;-84
2023/10/25 00:12:58;;;;;;;6.78;3.28;;;;;;;;;;5027067;28;20030;-82
2023/10/25 00:15:23;;;;;;;6.32;2.63;;;;;;;;;;5030661;28;20029;-83
2023/10/25 00:17:49;;;;;;;5.40;2.50;;;;;;;;;;5031657;28;20018;-82
2023/10/25 00:20:14;;;;;;;6.47;2.58;;;;;;;;;;5028805;28;20060;-82
2023/10/25 00:22:40;;;;;;;5.40;2.63;;;;;;;;;;5032676;28;20493;-84
2023/10/25 00:25:05;;;;;;;6.05;2.40;;;;;;;;;;5032390;28;20548;-82
2023/10/25 00:27:31;;;;;;;5.28;2.60;;;;;;;;;;5029196;28;20033;-82
2023/10/25 00:29:56;;;;;;;7.38;2.58;;;;;;;;;;5027566;28;20029;-83
2023/10/25 00:32:21;;;;;;;6.63;2.45;;;;;;;;;;5035777;28;20025;-83
2023/10/25 00:34:47;;;;;;;4.30;2.40;;;;;;;;;;5031919;28;20444;-83
2023/10/25 00:37:12;;;;;;;5.68;2.35;;;;;;;;;;5027131;28;20021;-82
2023/10/25 00:39:37;;;;;;;7.20;3.10;;;;;;;;;;5032057;28;20073;-83
2023/10/25 00:42:03;;;;;;;6.03;2.78;;;;;;;;;;5044651;28;20033;-82
2023/10/25 00:44:29;;;;;;;5.93;2.50;;;;;;;;;;5029305;28;20037;-83
2023/10/25 00:46:54;;;;;;;5.45;2.42;;;;;;;;;;5027259;28;20022;-87
2023/10/25 00:49:20;;;;;;;6.50;2.33;;;;;;;;;;5027865;28;20048;-88
2023/10/25 00:51:46;;;;;;;4.55;2.50;;;;;;;;;;5029996;28;20033;-88
2023/10/25 00:54:13;;;;;;;6.63;2.53;;;;;;;;;;5024771;28;20040;-83
2023/10/25 00:56:39;;;;;;;5.30;2.28;;;;;;;;;;5039537;28;20160;-83
2023/10/25 00:59:06;;;;;;;5.15;2.10;;;;;;;;;;5043103;28;20030;-84
2023/10/25 01:01:35;;;;;;;5.00;2.50;;;;;;;;;;5025071;28;20157;-82
2023/10/25 01:04:00;;;;;;;4.43;2.30;;;;;;;;;;5021045;28;20493;-82
2023/10/25 01:06:26;;;;;;;4.13;2.33;;;;;;;;;;5025339;28;20113;-82
2023/10/25 01:08:52;;;;;;;5.10;2.60;;;;;;;;;;5023247;28;20022;-83
2023/10/25 01:11:17;;;;;;;5.57;2.30;;;;;;;;;;5030509;28;20021;-82
2023/10/25 01:13:43;;;;;;;6.70;2.55;;;;;;;;;;5026013;28;20033;-82
2023/10/25 01:16:08;;;;;;;4.70;2.63;;;;;;;;;;5027592;28;20041;-83
2023/10/25 01:18:34;;;;;;;7.13;2.63;;;;;;;;;;5026419;28;20052;-83
2023/10/25 01:20:59;;;;;;;6.45;2.40;;;;;;;;;;5026587;28;20074;-82
2023/10/25 01:23:24;;;;;;;5.80;2.53;;;;;;;;;;5030488;28;20036;-82
2023/10/25 01:25:50;;;;;;;6.88;3.30;;;;;;;;;;5028564;28;20036;-83
2023/10/25 01:28:15;;;;;;;9.10;3.05;;;;;;;;;;5028273;28;20036;-83
2023/10/25 01:30:41;;;;;;;7.47;2.70;;;;;;;;;;5025592;28;20477;-83
2023/10/25 01:33:07;;;;;;;4.97;2.53;;;;;;;;;;5020133;28;20044;-83
2023/10/25 01:35:34;;;;;;;6.80;2.65;;;;;;;;;;5027325;28;20048;-82
2023/10/25 01:38:00;;;;;;;6.63;2.95;;;;;;;;;;5029063;28;20029;-83
2023/10/25 01:40:25;;;;;;;6.47;2.83;;;;;;;;;;5026778;28;20025;-82
2023/10/25 01:42:53;;;;;;;5.65;2.92;;;;;;;;;;5025972;28;20091;-83
2023/10/25 01:45:19;;;;;;;7.20;2.95;;;;;;;;;;5023928;28;20021;-83
2023/10/25 01:47:44;;;;;;;7.35;2.80;;;;;;;;;;5028847;28;20096;-83
2023/10/25 01:50:10;;;;;;;8.75;3.30;;;;;;;;;;5024950;28;20037;-82
2023/10/25 01:52:35;;;;;;;8.70;3.22;;;;;;;;;;5038180;28;20045;-82
2023/10/25 01:55:01;;;;;;;7.57;3.20;;;;;;;;;;5021817;28;20029;-85
2023/10/25 01:57:26;;;;;;;5.25;2.83;;;;;;;;;;5038953;28;20040;-82
2023/10/25 01:59:52;;;;;;;6.05;2.95;;;;;;;;;;5027592;28;20037;-83
2023/10/25 02:02:18;;;;;;;7.35;3.13;;;;;;;;;;5022293;28;20029;-83
2023/10/25 02:04:43;;;;;;;9.25;3.45;;;;;;;;;;5022747;28;20033;-83
2023/10/25 02:07:09;;;;;;;5.40;2.78;;;;;;;;;;5029294;28;20033;-82
2023/10/25 02:09:35;;;;;;;7.05;3.10;;;;;;;;;;5031640;28;20024;-83
2023/10/25 02:12:00;;;;;;;7.47;2.95;;;;;;;;;;5024394;28;20040;-83
2023/10/25 02:14:26;;;;;;;6.72;2.97;;;;;;;;;;5027873;28;20116;-83
2023/10/25 02:16:51;;;;;;;6.82;3.60;;;;;;;;;;5028645;28;20040;-82
2023/10/25 02:19:17;;;;;;;6.90;2.95;;;;;;;;;;5029673;28;20125;-82
2023/10/25 02:21:42;;;;;;;7.10;3.00;;;;;;;;;;5025472;28;20029;-82
2023/10/25 02:24:10;;;;;;;4.45;2.70;;;;;;;;;;5025346;28;20041;-83
2023/10/25 02:26:36;;;;;;;6.72;3.47;;;;;;;;;;5024921;28;20030;-83
2023/10/25 02:29:01;;;;;;;6.18;2.85;;;;;;;;;;5030077;28;20021;-82
2023/10/25 02:31:26;;;;;;;7.65;3.30;;;;;;;;;;5024063;28;20600;-82
2023/10/25 02:33:52;;;;;;;6.35;3.33;;;;;;;;;;5028237;28;20059;-82
2023/10/25 02:36:17;;;;;;;6.28;2.97;;;;;;;;;;5026655;28;20029;-83
2023/10/25 02:38:43;;;;;;;6.47;3.00;;;;;;;;;;5017260;28;20032;-83
2023/10/25 02:41:08;;;;;;;6.13;2.88;;;;;;;;;;5037908;28;20079;-87
2023/10/25 02:43:34;;;;;;;7.07;3.10;;;;;;;;;;5027697;28;20029;-86
2023/10/25 02:46:02;;;;;;;6.00;3.53;;;;;;;;;;5030817;28;20044;-87
2023/10/25 02:48:27;;;;;;;6.38;3.08;;;;;;;;;;5039087;28;20112;-86
2023/10/25 02:50:53;;;;;;;5.15;2.97;;;;;;;;;;5026778;28;20112;-86
2023/10/25 02:53:18;;;;;;;5.78;2.90;;;;;;;;;;5025116;28;20168;-86
2023/10/25 02:55:47;;;;;;;4.45;2.58;;;;;;;;;;5022570;28;20065;-86
2023/10/25 02:58:12;;;;;;;6.03;2.63;;;;;;;;;;5024128;28;20041;-82
2023/10/25 03:00:38;;;;;;;6.10;3.05;;;;;;;;;;5024455;28;20043;-83
2023/10/25 03:03:03;;;;;;;4.60;2.58;;;;;;;;;;5026531;28;20034;-83
2023/10/25 03:05:28;;;;;;;7.55;2.60;;;;;;;;;;5027873;28;20021;-85
2023/10/25 03:07:54;;;;;;;14.15;3.53;;;;;;;;;;5023694;28;20029;-83
2023/10/25 03:10:21;;;;;;;4.35;2.22;;;;;;;;;;5027419;28;20083;-83
2023/10/25 03:12:46;;;;;;;4.40;2.85;;;;;;;;;;5029102;28;20041;-90
2023/10/25 03:15:11;;;;;;;5.88;2.50;;;;;;;;;;5028163;28;20122;-89
2023/10/25 03:17:37;;;;;;;5.43;2.47;;;;;;;;;;5025027;28;20034;-88
2023/10/25 03:20:05;;;;;;;5.03;2.28;;;;;;;;;;5024287;28;20028;-90
2023/10/25 03:22:31;;;;;;;4.45;2.40;;;;;;;;;;5026623;28;20481;-88
2023/10/25 03:24:57;;;;;;;4.32;2.28;;;;;;;;;;5031478;28;20532;-89
2023/10/25 03:27:22;;;;;;;5.40;2.45;;;;;;;;;;5025219;28;20159;-90
2023/10/25 03:29:48;;;;;;;4.00;1.98;;;;;;;;;;5027431;28;20018;-87
2023/10/25 03:32:13;;;;;;;5.07;2.10;;;;;;;;;;5024840;28;20116;-84
2023/10/25 03:34:39;;;;;;;4.60;2.20;;;;;;;;;;5024157;28;20036;-82
2023/10/25 03:37:04;;;;;;;6.50;2.30;;;;;;;;;;5024897;28;20025;-83
2023/10/25 03:39:30;;;;;;;3.97;2.20;;;;;;;;;;5025038;28;20441;-82
2023/10/25 03:41:56;;;;;;;4.82;2.08;;;;;;;;;;5029610;28;20032;-84
2023/10/25 03:44:21;;;;;;;4.82;2.40;;;;;;;;;;5043544;28;20100;-87
2023/10/25 03:46:47;;;;;;;5.63;2.40;;;;;;;;;;5028853;28;20139;-87
2023/10/25 03:49:12;;;;;;;5.88;2.10;;;;;;;;;;5027021;28;20029;-84
2023/10/25 03:51:38;;;;;;;4.53;2.00;;;;;;;;;;5025832;28;20052;-86
2023/10/25 03:54:03;;;;;;;5.00;2.75;;;;;;;;;;5024432;28;20497;-86
2023/10/25 03:56:29;;;;;;;5.45;2.20;;;;;;;;;;5020672;28;20083;-82
2023/10/25 03:58:54;;;;;;;5.18;2.20;;;;;;;;;;5032827;28;20034;-83
2023/10/25 04:01:22;;;;;;;4.63;2.00;;;;;;;;;;5028424;28;20507;-83
2023/10/25 04:03:50;;;;;;;4.15;2.25;;;;;;;;;;5022649;28;20036;-83
2023/10/25 04:06:15;;;;;;;6.05;2.30;;;;;;;;;;5023671;28;20040;-83
2023/10/25 04:08:41;;;;;;;5.85;2.40;;;;;;;;;;5023708;28;20029;-82
2023/10/25 04:11:07;;;;;;;4.53;2.10;;;;;;;;;;5022838;28;20034;-83
2023/10/25 04:13:33;;;;;;;4.20;2.05;;;;;;;;;;5045133;28;21049;-82
2023/10/25 04:16:02;;;;;;;4.50;2.33;;;;;;;;;;5029984;28;20028;-83
2023/10/25 04:18:30;;;;;;;7.22;2.42;;;;;;;;;;5028904;28;20033;-82
2023/10/25 04:20:57;;;;;;;6.32;2.60;;;;;;;;;;5031103;28;20029;-82
2023/10/25 04:23:23;;;;;;;6.28;2.28;;;;;;;;;;5026746;28;20045;-82
2023/10/25 04:25:49;;;;;;;5.90;2.75;;;;;;;;;;5028841;28;20482;-82
2023/10/25 04:28:14;;;;;;;6.10;2.60;;;;;;;;;;5030923;28;20029;-82
2023/10/25 04:30:40;;;;;;;6.38;2.58;;;;;;;;;;5031076;28;20029;-82
2023/10/25 04:33:06;;;;;;;10.65;2.60;;;;;;;;;;5047345;28;20509;-82
2023/10/25 04:35:32;;;;;;;8.05;2.50;;;;;;;;;;5031321;28;20049;-82
2023/10/25 04:37:58;;;;;;;8.23;2.72;;;;;;;;;;5033818;28;20059;-82
2023/10/25 04:40:23;;;;;;;9.82;2.97;;;;;;;;;;5028264;28;20033;-83
2023/10/25 04:42:50;;;;;;;9.70;3.08;;;;;;;;;;5027912;28;20120;-83
2023/10/25 04:45:16;;;;;;;10.25;3.38;;;;;;;;;;5031373;28;20084;-82
2023/10/25 04:47:41;;;;;;;7.53;2.90;;;;;;;;;;5026150;28;20033;-82
2023/10/25 04:50:10;;;;;;;9.55;3.30;;;;;;;;;;5022927;28;20665;-83
2023/10/25 04:52:38;;;;;;;7.90;3.17;;;;;;;;;;5022987;28;20025;-85
2023/10/25 04:55:04;;;;;;;8.38;3.15;;;;;;;;;;5026279;28;20034;-87
2023/10/25 04:57:33;;;;;;;6.82;2.70;;;;;;;;;;5027397;28;20033;-85
2023/10/25 04:59:58;;;;;;;8.02;3.13;;;;;;;;;;5030288;28;20025;-88
2023/10/25 05:02:27;;;;;;;10.55;3.22;;;;;;;;;;5037423;28;20095;-84
2023/10/25 05:04:52;;;;;;;5.80;2.78;;;;;;;;;;5033392;28;20037;-84
2023/10/25 05:07:17;;;;;;;5.03;2.78;;;;;;;;;;5024225;28;20076;-83
2023/10/25 05:09:43;;;;;;;5.20;3.10;;;;;;;;;;5021646;28;20032;-84
2023/10/25 05:12:11;;;;;;;6.13;3.03;;;;;;;;;;5031142;28;20064;-84
2023/10/25 05:14:36;;;;;;;8.07;2.88;;;;;;;;;;5036910;28;20121;-84
2023/10/25 05:17:05;;;;;;;9.32;3.05;;;;;;;;;;5025226;28;20112;-84
2023/10/25 05:19:31;;;;;;;8.73;3.00;;;;;;;;;;5024106;28;20048;-84
2023/10/25 05:21:59;;;;;;;6.10;2.92;;;;;;;;;;5029420;28;20604;-84
2023/10/25 05:24:25;;;;;;;6.40;2.92;;;;;;;;;;5031693;28;20025;-84
2023/10/25 05:26:50;;;;;;;7.45;3.03;;;;;;;;;;5032526;28;20510;-88
2023/10/25 05:29:16;;;;;;;5.18;2.63;;;;;;;;;;5030811;28;20498;-88
2023/10/25 05:31:43;;;;;;;5.28;2.67;;;;;;;;;;5033046;28;20033;-87
2023/10/25 05:34:10;;;;;;;6.85;2.88;;;;;;;;;;5031410;28;20934;-86
2023/10/25 05:36:36;;;;;;;5.03;2.70;;;;;;;;;;5031365;28;20543;-87
2023/10/25 05:39:02;;;;;;;6.50;2.97;;;;;;;;;;5046678;28;20063;-87
2023/10/25 05:41:30;;;;;;;7.78;2.55;;;;;;;;;;5032761;28;20029;-88
2023/10/25 05:44:05;;;;;;;5.45;2.50;;;;;;;;;;5032179;28;20025;-87
2023/10/25 05:46:31;;;;;;;7.43;2.63;;;;;;;;;;5028906;28;20033;-83
2023/10/25 05:48:56;;;;;;;4.32;2.60;;;;;;;;;;5022851;28;20112;-83
2023/10/25 05:51:22;;;;;;;5.25;2.47;;;;;;;;;;5031585;28;20032;-83
2023/10/25 05:53:55;;;;;;;6.30;2.58;;;;;;;;;;5030804;28;20075;-83
2023/10/25 05:56:25;;;;;;;5.57;2.50;;;;;;;;;;5041437;28;20025;-83
2023/10/25 05:58:54;;;;;;;5.05;2.50;;;;;;;;;;5030559;28;20481;-82
2023/10/25 06:01:29;;;;;;;9.63;2.97;;;;;;;;;;5025310;28;20025;-83
2023/10/25 06:03:56;;;;;;;7.95;2.42;;;;;;;;;;5020738;28;20459;-83
2023/10/25 06:06:24;;;;;;;6.07;2.72;;;;;;;;;;5033465;28;20436;-83
2023/10/25 06:08:49;;;;;;;4.82;2.35;;;;;;;;;;5026083;28;20108;-83
2023/10/25 06:11:16;;;;;;;9.10;2.50;;;;;;;;;;5024762;28;20105;-83
2023/10/25 06:13:41;;;;;;;5.82;2.58;;;;;;;;;;5022968;28;20063;-90
2023/10/25 06:16:07;;;;;;;5.40;2.60;;;;;;;;;;5045104;28;20053;-88
2023/10/25 06:18:35;;;;;;;5.95;2.53;;;;;;;;;;5023378;28;20028;-90
2023/10/25 06:21:01;;;;;;;4.68;2.60;;;;;;;;;;5014898;28;20511;-90
2023/10/25 06:23:30;;;;;;;5.97;2.67;;;;;;;;;;5030341;28;20030;-91
2023/10/25 06:25:56;;;;;;;7.30;2.70;;;;;;;;;;5039611;28;20546;-90
2023/10/25 06:28:21;;;;;;;9.10;2.88;;;;;;;;;;5026878;28;20036;-91
2023/10/25 06:30:46;;;;;;;8.50;3.08;;;;;;;;;;5029908;28;20155;-92
2023/10/25 06:33:12;;;;;;;7.45;2.72;;;;;;;;;;5030188;28;20044;-88
2023/10/25 06:35:37;;;;;;;5.32;2.22;;;;;;;;;;5026637;28;20026;-90
2023/10/25 06:38:07;;;;;;;5.65;2.72;;;;;;;;;;5032481;28;20030;-91
2023/10/25 06:40:33;;;;;;;7.55;3.17;;;;;;;;;;5032215;28;20042;-90
2023/10/25 06:43:00;;;;;;;5.75;2.72;;;;;;;;;;5041202;28;20022;-90
2023/10/25 06:45:28;;;;;;;6.93;2.70;;;;;;;;;;5048294;28;20480;-90
2023/10/25 06:47:54;;;;;;;4.50;2.60;;;;;;;;;;5029030;28;20033;-91
2023/10/25 06:50:25;;;;;;;5.20;3.05;;;;;;;;;;5029847;28;20025;-84
2023/10/25 06:52:51;;;;;;;6.03;2.80;;;;;;;;;;5043228;28;20489;-84
2023/10/25 06:55:20;;;;;;;5.93;2.65;;;;;;;;;;5023310;28;20021;-83
2023/10/25 06:57:46;;;;;;;4.82;2.58;;;;;;;;;;5028767;28;20032;-83
2023/10/25 07:00:12;;;;;;;6.00;2.50;;;;;;;;;;5029744;28;20033;-83
2023/10/25 07:02:51;;;;;;;5.38;2.42;;;;;;;;;;5032631;28;20037;-83
2023/10/25 07:05:18;;;;;;;4.47;2.53;;;;;;;;;;5029358;28;20029;-83
2023/10/25 07:07:45;;;;;;;6.95;2.53;;;;;;;;;;5030968;28;20025;-83
2023/10/25 07:10:11;;;;;;;4.65;2.10;;;;;;;;;;5026872;28;20493;-82
2023/10/25 07:12:37;;;;;;;5.80;2.65;;;;;;;;;;5028283;28;20029;-83
2023/10/25 07:15:05;;;;;;;6.47;2.80;;;;;;;;;;5027898;28;20042;-83
2023/10/25 07:17:31;;;;;;;6.30;2.28;;;;;;;;;;5029608;28;20109;-82
2023/10/25 07:19:58;;;;;;;10.95;2.60;;;;;;;;;;5027877;28;20549;-84
2023/10/25 07:22:28;;;;;;;5.13;2.20;;;;;;;;;;5018754;28;20037;-83
2023/10/25 07:24:54;;;;;;;5.70;2.38;;;;;;;;;;5028733;28;20060;-84
2023/10/25 07:27:19;;;;;;;5.47;2.60;;;;;;;;;;5039550;28;20128;-83
2023/10/25 07:29:45;;;;;;;6.05;2.25;;;;;;;;;;5030009;28;20028;-83
2023/10/25 07:32:10;;;;;;;4.63;2.10;;;;;;;;;;5029079;28;20033;-84
2023/10/25 07:34:37;;;;;;;6.70;2.20;;;;;;;;;;5028093;28;20381;-84
2023/10/25 07:37:03;;;;;;;7.68;2.47;;;;;;;;;;5040548;28;20029;-84
2023/10/25 07:39:29;;;;;;;4.15;2.05;;;;;;;;;;5026662;28;20025;-84
2023/10/25 07:41:54;;;;;;;5.47;2.38;;;;;;;;;;5028588;28;20033;-84
2023/10/25 07:44:19;;;;;;;4.25;2.17;;;;;;;;;;5025720;28;20036;-84
2023/10/25 07:46:45;;;;;;;6.00;2.40;;;;;;;;;;5022790;28;20018;-84
2023/10/25 07:49:10;;;;;;;5.10;2.15;;;;;;;;;;5020001;28;20021;-84
2023/10/25 07:51:36;;;;;;;6.25;2.17;;;;;;;;;;5021359;28;20030;-84
2023/10/25 07:54:02;;;;;;;6.13;2.50;;;;;;;;;;5025170;28;20134;-84
2023/10/25 07:56:28;;;;;;;5.68;2.58;;;;;;;;;;5024510;28;20029;-84
2023/10/25 07:58:54;;;;;;;4.57;2.50;;;;;;;;;;5029646;28;20075;-84
2023/10/25 08:01:19;;;;;;;5.60;2.10;;;;;;;;;;5038248;28;20037;-84
2023/10/25 08:03:44;;;;;;;6.10;2.30;;;;;;;;;;5033686;28;20022;-84
2023/10/25 08:06:10;;;;;;;5.40;2.40;;;;;;;;;;5025930;28;20032;-84
2023/10/25 08:08:35;;;;;;;4.30;2.20;;;;;;;;;;5027059;28;20079;-84
2023/10/25 08:11:02;;;;;;;6.43;2.45;;;;;;;;;;5030447;28;20501;-84
2023/10/25 08:13:28;;;;;;;4.20;2.20;;;;;;;;;;5023846;28;20168;-84
2023/10/25 08:15:58;;;;;;;4.95;2.42;;;;;;;;;;5028985;28;20036;-84
2023/10/25 08:18:25;;;;;;;6.07;2.35;;;;;;;;;;5029062;28;20025;-83
2023/10/25 08:20:51;;;;;;;3.83;2.05;;;;;;;;;;5031520;28;20028;-83
2023/10/25 08:23:16;;;;;;;5.03;2.30;;;;;;;;;;5032881;28;20565;-84
2023/10/25 08:25:42;;;;;;;5.10;2.33;;;;;;;;;;5036839;28;20029;-84
2023/10/25 08:28:07;;;;;;;6.75;3.03;;;;;;;;;;5031752;28;20037;-84
2023/10/25 08:30:32;;;;;;;6.25;2.58;;;;;;;;;;5029994;28;20072;-84
2023/10/25 08:32:58;;;;;;;4.53;2.20;;;;;;;;;;5025259;28;20056;-84
2023/10/25 08:35:23;;;;;;;5.63;2.40;;;;;;;;;;5031960;28;20777;-84
2023/10/25 08:37:49;;;;;;;5.15;2.80;;;;;;;;;;5033386;28;20033;-84
2023/10/25 08:40:15;;;;;;;4.78;2.25;;;;;;;;;;5042711;28;20043;-84
2023/10/25 08:42:41;;;;;;;5.18;2.30;;;;;;;;;;5033801;28;20057;-83
2023/10/25 08:45:07;;;;;;;5.57;2.50;;;;;;;;;;5033685;28;20088;-84
2023/10/25 08:47:32;;;;;;;5.85;2.70;;;;;;;;;;5036386;28;20549;-84
2023/10/25 08:50:19;;;;;;;5.68;2.75;;;;;;;;;;5047317;28;20465;-84
2023/10/25 08:52:48;;;;;;;4.80;2.88;;;;;;;;;;5032917;28;20029;-93
2023/10/25 08:55:15;;;;;;;5.90;2.72;;;;;;;;;;5030539;28;20029;-88
2023/10/25 08:57:40;;;;;;;6.95;3.03;;;;;;;;;;5029032;28;20036;-92
2023/10/25 09:00:10;;;;;;;5.00;3.10;;;;;;;;;;5049967;28;20025;-92
2023/10/25 09:02:37;;;;;;;6.05;3.00;;;;;;;;;;5029677;28;20508;-83
2023/10/25 09:05:03;;;;;;;6.80;3.17;;;;;;;;;;5027522;28;20386;-83
2023/10/25 09:07:38;;;;;;;8.10;3.47;;;;;;;;;;5026289;28;20048;-83
2023/10/25 09:10:11;;;;;;;8.75;3.70;;;;;;;;;;5025698;28;20068;-83
2023/10/25 09:12:36;;;;;;;;;;;;;;;;;;5033326;28;20112;-84
2023/10/25 09:15:03;;;;;;;5.60;3.10;;;;;;;;;;5031466;28;20441;-85
2023/10/25 09:17:30;;;;;;;5.78;3.30;;;;;;;;;;5030318;28;20063;-85
2023/10/25 09:19:56;;;;;;;5.78;3.05;;;;;;;;;;5031256;28;20040;-84
2023/10/25 09:22:31;;;;;;;5.50;3.08;;;;;;;;;;5029950;28;20025;-83
2023/10/25 09:25:00;;;;;;;6.05;2.88;;;;;;;;;;5032623;28;20083;-83
2023/10/25 09:27:27;;;;;;;9.65;3.28;;;;;;;;;;5043571;28;20175;-83
2023/10/25 09:29:53;;;;;;;6.15;3.25;;;;;;;;;;5038925;28;20029;-83
2023/10/25 09:32:20;;;;;;;7.72;3.55;;;;;;;;;;5030626;28;20108;-83
2023/10/25 09:34:46;;;;;;;5.72;3.25;;;;;;;;;;5030291;28;20043;-83
2023/10/25 09:37:12;;;;;;;4.88;3.25;;;;;;;;;;5026381;28;20064;-83
2023/10/25 09:39:38;;;;;;;10.30;4.18;;;;;;;;;;5025804;28;20076;-83
2023/10/25 09:42:13;;;;;;;8.32;3.28;;;;;;;;;;5033399;28;20444;-83
2023/10/25 09:44:50;;;;;;;5.78;3.10;;;;;;;;;;5032954;28;20529;-83
2023/10/25 09:47:18;;;;;;;5.63;3.15;;;;;;;;;;5027106;28;20037;-83
2023/10/25 09:49:48;;;;;;;6.13;3.35;;;;;;;;;;5024763;28;20485;-84
2023/10/25 09:52:25;;;;;;;4.68;2.90;;;;;;;;;;5023653;28;20363;-83
2023/10/25 09:54:51;;;;;;;5.43;3.00;;;;;;;;;;5026203;28;20366;-84
2023/10/25 09:57:21;;;;;;;6.13;3.30;;;;;;;;;;5024861;28;20090;-83
2023/10/25 09:59:47;;;;;;;6.68;3.47;;;;;;;;;;5028099;28;20025;-84
2023/10/25 10:02:27;;;;;;;9.60;3.33;;;;;;;;;;5028577;28;20029;-83
2023/10/25 10:05:01;;;;;;;5.93;3.53;;;;;;;;;;5029532;28;20033;-84
2023/10/25 10:07:49;;;;;;;5.68;3.58;;;;;;;;;;5045511;28;20492;-84
2023/10/25 10:10:25;;;;;;;5.15;3.38;;;;;;;;;;5023101;28;20018;-84
2023/10/25 10:12:51;;;;;;;7.75;3.40;;;;;;;;;;5038597;28;20033;-91
2023/10/25 10:15:16;;;;;;;6.03;3.10;;;;;;;;;;5029339;28;20048;-91
2023/10/25 10:17:43;;;;;;;7.82;3.88;;;;;;;;;;5025008;28;20034;-90
2023/10/25 10:20:28;;;;;;;7.28;3.53;;;;;;;;;;5027856;28;20033;-90
2023/10/25 10:23:04;;;;;;;7.28;3.90;;;;;;;;;;5031562;28;20393;-89
2023/10/25 10:25:43;;;;;;;8.57;4.13;;;;;;;;;;5027414;28;20777;-90
2023/10/25 10:28:09;;;;;;;7.25;4.00;;;;;;;;;;5023048;28;20033;-88
2023/10/25 10:30:37;;;;;;;6.80;4.28;;;;;;;;;;5024642;28;20040;-91
2023/10/25 10:33:04;;;;;;;6.25;3.92;;;;;;;;;;5034676;28;20112;-89
2023/10/25 10:35:29;;;;;;;7.28;3.75;;;;;;;;;;5041699;28;20021;-88
2023/10/25 10:37:56;;;;;;;11.07;4.28;;;;;;;;;;5031904;28;20025;-89
2023/10/25 10:40:21;;;;;;;6.93;3.90;;;;;;;;;;5041105;28;20040;-87
2023/10/25 10:42:47;;;;;;;7.25;3.80;;;;;;;;;;5037302;28;20097;-89
2023/10/25 10:45:14;;;;;;;7.07;3.83;;;;;;;;;;5036270;28;20159;-88
2023/10/25 10:47:57;;;;;;;8.68;3.92;;;;;;;;;;5030196;28;20037;-89
2023/10/25 10:50:24;;;;;;;7.25;3.88;;;;;;;;;;5029737;28;20052;-88
2023/10/25 10:52:51;;;;;;;7.78;4.00;;;;;;;;;;5024661;28;20057;-89
2023/10/25 10:55:19;;;;;;;8.25;3.83;;;;;;;;;;5030104;28;20030;-89
2023/10/25 10:57:44;;;;;;;7.70;4.50;;;;;;;;;;5027534;28;20025;-88
2023/10/25 11:00:13;;;;;;;9.20;3.92;;;;;;;;;;5029417;28;20029;-89
2023/10/25 11:02:50;;;;;;;6.90;3.63;;;;;;;;;;5031845;28;20021;-89
2023/10/25 11:05:21;;;;;;;8.15;4.00;;;;;;;;;;5031517;28;20031;-90
2023/10/25 11:07:50;;;;;;;9.60;4.38;;;;;;;;;;5027278;28;20482;-90
2023/10/25 11:10:16;;;;;;;6.03;4.00;;;;;;;;;;5030352;28;20050;-89
2023/10/25 11:12:43;;;;;;;7.50;3.78;;;;;;;;;;5024518;28;20024;-91
2023/10/25 11:15:10;;;;;;;7.15;3.95;;;;;;;;;;5029706;28;20043;-90
2023/10/25 11:17:36;;;;;;;7.72;3.78;;;;;;;;;;5031117;28;20108;-90
2023/10/25 11:20:02;;;;;;;6.82;3.80;;;;;;;;;;5032725;28;20104;-90
2023/10/25 11:22:30;;;;;;;7.78;3.75;;;;;;;;;;5029556;28;20489;-83
2023/10/25 11:24:57;;;;;;;6.40;3.53;;;;;;;;;;5029509;28;20493;-84
2023/10/25 11:27:22;;;;;;;7.93;3.75;;;;;;;;;;5026921;28;20037;-84
2023/10/25 11:29:48;;;;;;;5.22;3.42;;;;;;;;;;5032139;28;20099;-82
2023/10/25 11:32:15;;;;;;;6.22;3.40;;;;;;;;;;5029935;28;20108;-86
2023/10/25 11:34:43;;;;;;;7.63;3.45;;;;;;;;;;5023454;28;20033;-87
2023/10/25 11:37:12;;;;;;;8.27;3.88;;;;;;;;;;5025437;28;20029;-87
2023/10/25 11:40:01;;;;;;;6.88;3.42;;;;;;;;;;5018049;28;20497;-85
2023/10/25 11:42:30;;;;;;;6.60;3.08;;;;;;;;;;5029657;28;20025;-83
2023/10/25 11:44:58;;;;;;;6.55;3.00;;;;;;;;;;5031517;28;20363;-82
2023/10/25 11:47:23;;;;;;;6.90;3.25;;;;;;;;;;5028524;28;20059;-83
2023/10/25 11:49:54;;;;;;;6.00;2.75;;;;;;;;;;5028601;28;20025;-83
2023/10/25 11:52:28;;;;;;;7.63;3.05;;;;;;;;;;5028478;28;20039;-84
2023/10/25 11:54:55;;;;;;;5.75;2.63;;;;;;;;;;5015693;28;20045;-83
2023/10/25 11:57:28;;;;;;;5.88;3.03;;;;;;;;;;5042521;28;20080;-83
2023/10/25 11:59:54;;;;;;;5.25;2.60;;;;;;;;;;5044739;28;20112;-82
2023/10/25 12:02:23;;;;;;;6.50;3.10;;;;;;;;;;5027207;28;20121;-83
2023/10/25 12:04:49;;;;;;;6.80;2.97;;;;;;;;;;5029111;28;20032;-83
2023/10/25 12:07:14;;;;;;;5.55;2.70;;;;;;;;;;5031445;28;20037;-82
2023/10/25 12:09:45;;;;;;;5.90;2.80;;;;;;;;;;5028389;28;20060;-82
2023/10/25 12:12:11;;;;;;;6.10;2.70;;;;;;;;;;5031279;28;20029;-82
2023/10/25 12:14:36;;;;;;;6.13;2.50;;;;;;;;;;5042121;28;20039;-83
2023/10/25 12:17:03;;;;;;;6.40;2.65;;;;;;;;;;5034628;28;20031;-83
2023/10/25 12:19:29;;;;;;;7.72;2.72;;;;;;;;;;5037035;28;20025;-82
2023/10/25 12:21:58;;;;;;;5.55;3.30;;;;;;;;;;5030935;28;20076;-83
2023/10/25 12:24:26;;;;;;;6.28;3.05;;;;;;;;;;5047869;28;20025;-82
2023/10/25 12:26:52;;;;;;;4.35;2.58;;;;;;;;;;5043692;28;20032;-82
2023/10/25 12:29:18;;;;;;;4.95;2.78;;;;;;;;;;5024025;28;20021;-82
2023/10/25 12:31:45;;;;;;;5.90;3.10;;;;;;;;;;5027020;28;20033;-81
2023/10/25 12:34:11;;;;;;;4.45;2.50;;;;;;;;;;5032046;28;20127;-82
2023/10/25 12:36:38;;;;;;;5.03;2.42;;;;;;;;;;5032607;28;20025;-82
2023/10/25 12:39:04;;;;;;;4.40;2.63;;;;;;;;;;5049440;28;20474;-83
2023/10/25 12:41:29;;;;;;;4.35;2.40;;;;;;;;;;5032441;28;20029;-82
2023/10/25 12:43:56;;;;;;;4.47;2.30;;;;;;;;;;5031788;28;20045;-82
2023/10/25 12:46:21;;;;;;;3.92;2.33;;;;;;;;;;5031240;28;20033;-83
2023/10/25 12:48:47;;;;;;;5.30;2.40;;;;;;;;;;5031697;28;20615;-83
2023/10/25 12:51:12;;;;;;;4.15;2.38;;;;;;;;;;5031892;28;20031;-82
2023/10/25 12:53:37;;;;;;;5.88;2.60;;;;;;;;;;5031628;28;20033;-83
2023/10/25 12:56:03;;;;;;;5.50;2.50;;;;;;;;;;5023873;28;20116;-82
2023/10/25 12:58:28;;;;;;;4.78;2.80;;;;;;;;;;5027922;28;20390;-83
2023/10/25 13:00:54;;;;;;;3.97;2.50;;;;;;;;;;5031630;28;20022;-84
2023/10/25 13:03:20;;;;;;;5.85;2.80;;;;;;;;;;5034221;28;20636;-82
2023/10/25 13:05:45;;;;;;;5.00;2.90;;;;;;;;;;5032100;28;20150;-83
2023/10/25 13:08:11;;;;;;;5.65;2.60;;;;;;;;;;5029697;28;20033;-82
2023/10/25 13:10:36;;;;;;;5.95;3.17;;;;;;;;;;5027460;28;20031;-83
2023/10/25 13:13:01;;;;;;;5.18;2.80;;;;;;;;;;5026006;28;20030;-82
2023/10/25 13:15:27;;;;;;;5.00;2.80;;;;;;;;;;5030040;28;20036;-82
2023/10/25 13:17:52;;;;;;;6.05;3.25;;;;;;;;;;5024666;28;20029;-82
2023/10/25 13:20:18;;;;;;;4.85;3.20;;;;;;;;;;5026965;28;20056;-82
2023/10/25 13:22:44;;;;;;;5.15;2.97;;;;;;;;;;5029166;28;20064;-81
2023/10/25 13:25:09;;;;;;;5.15;3.17;;;;;;;;;;5029226;28;20535;-83
2023/10/25 13:27:36;;;;;;;6.30;3.50;;;;;;;;;;5026268;28;20083;-82
2023/10/25 13:30:05;;;;;;;5.57;3.13;;;;;;;;;;5030520;28;20087;-82
2023/10/25 13:32:30;;;;;;;5.30;3.28;;;;;;;;;;5030580;28;20090;-81
2023/10/25 13:34:56;;;;;;;6.97;3.30;;;;;;;;;;5033781;28;20025;-84
2023/10/25 13:37:21;;;;;;;6.55;4.00;;;;;;;;;;5026900;28;20041;-82
2023/10/25 13:39:47;;;;;;;6.38;3.30;;;;;;;;;;5028134;28;20026;-82
2023/10/25 13:42:13;;;;;;;4.43;3.30;;;;;;;;;;5028232;28;20544;-82
2023/10/25 13:44:38;;;;;;;6.05;3.25;;;;;;;;;;5027155;28;20116;-82
2023/10/25 13:47:04;;;;;;;5.82;3.60;;;;;;;;;;5024161;28;20492;-83
2023/10/25 13:49:29;;;;;;;6.18;3.58;;;;;;;;;;5028806;28;20028;-83
2023/10/25 13:51:55;;;;;;;4.97;3.50;;;;;;;;;;5032247;28;20028;-83
2023/10/25 13:54:20;;;;;;;4.88;3.38;;;;;;;;;;5024563;28;20025;-84
2023/10/25 13:56:46;;;;;;;6.72;3.72;;;;;;;;;;5027536;28;20040;-84
2023/10/25 13:59:11;;;;;;;5.20;3.65;;;;;;;;;;5030857;28;20030;-85
2023/10/25 14:01:39;;;;;;;4.50;3.50;;;;;;;;;;5026250;28;20037;-84
2023/10/25 14:04:04;;;;;;;4.30;3.30;;;;;;;;;;5029412;28;20029;-84
2023/10/25 14:06:30;;;;;;;5.55;3.70;;;;;;;;;;5027358;28;20121;-84
2023/10/25 14:08:55;;;;;;;5.40;3.80;;;;;;;;;;5031627;28;20028;-85
2023/10/25 14:11:21;;;;;;;7.15;3.92;;;;;;;;;;5021243;28;20030;-85
2023/10/25 14:13:46;;;;;;;6.38;3.85;;;;;;;;;;5024806;28;20025;-84
2023/10/25 14:16:12;;;;;;;7.13;3.85;;;;;;;;;;5029127;28;20017;-85
2023/10/25 14:18:37;;;;;;;5.60;3.78;;;;;;;;;;5030757;28;20486;-84
2023/10/25 14:21:08;;;;;;;5.63;3.95;;;;;;;;;;5023834;28;20128;-85
2023/10/25 14:23:34;;;;;;;6.45;4.30;;;;;;;;;;5028259;28;20080;-83
2023/10/25 14:26:02;;;;;;;4.93;3.80;;;;;;;;;;5023987;28;20525;-82
2023/10/25 14:28:28;;;;;;;6.13;4.03;;;;;;;;;;5024163;28;20388;-83
2023/10/25 14:30:53;;;;;;;5.28;3.80;;;;;;;;;;5022158;28;20037;-83
2023/10/25 14:33:19;;;;;;;5.03;3.55;;;;;;;;;;5023236;28;20375;-92
2023/10/25 14:35:44;;;;;;;5.60;3.85;;;;;;;;;;5048777;28;20203;-90
2023/10/25 14:38:10;;;;;;;5.85;3.80;;;;;;;;;;5036319;28;20030;-91
2023/10/25 14:40:40;;;;;;;7.38;4.05;;;;;;;;;;5042668;28;20030;-89